Time;durP1;ratioP1;P1;durP2;ratioP2;P2;SDS_P1;SDS_P2;PMS_P1;PMS_P2;Temp;Humidity;BMP_temperature;BMP_pressure;BME280_temperature;BME280_humidity;BME280_pressure;Samples;Min_cycle;Max_cycle;Signal;HPM_P1;HPM_P2
2023/12/09 00:01:16;;;;;;;18.23;10.30;;;;;;;2.03;100.00;63130.00;5054317;28;20271;-56
2023/12/09 00:03:42;;;;;;;17.63;10.70;;;;;;;2.09;100.00;63134.59;5077384;22;20212;-53
2023/12/09 00:06:07;;;;;;;19.00;11.53;;;;;;;2.09;100.00;63137.06;5074017;28;20224;-53
2023/12/09 00:08:33;;;;;;;20.63;11.10;;;;;;;2.20;100.00;63146.50;5056067;28;20717;-54
2023/12/09 00:10:59;;;;;;;19.77;11.33;;;;;;;2.28;100.00;63155.19;5074571;28;20622;-56
2023/12/09 00:13:24;;;;;;;21.70;11.63;;;;;;;2.09;100.00;63136.53;5074219;28;20215;-54
2023/12/09 00:15:50;;;;;;;18.37;10.77;;;;;;;2.09;100.00;63136.53;5073850;28;20219;-54
2023/12/09 00:18:16;;;;;;;21.17;12.10;;;;;;;2.13;100.00;63141.41;5074235;28;20209;-56
2023/12/09 00:20:41;;;;;;;22.33;11.60;;;;;;;2.08;100.00;63135.44;5074177;28;20253;-56
2023/12/09 00:23:07;;;;;;;17.97;10.17;;;;;;;2.20;100.00;63145.97;5073921;28;20223;-54
2023/12/09 00:25:33;;;;;;;20.13;10.83;;;;;;;2.07;100.00;63131.88;5073736;28;20205;-55
2023/12/09 00:27:59;;;;;;;19.73;11.57;;;;;;;2.10;100.00;63135.66;5073774;28;20282;-53
2023/12/09 00:30:24;;;;;;;21.77;11.53;;;;;;;2.13;100.00;63143.91;5074097;28;20550;-55
2023/12/09 00:32:50;;;;;;;30.80;11.83;;;;;;;2.14;100.00;63141.97;5073879;28;20613;-54
2023/12/09 00:35:15;;;;;;;18.73;11.30;;;;;;;2.26;100.00;63153.03;5073704;28;20200;-53
2023/12/09 00:37:41;;;;;;;19.93;10.93;;;;;;;2.18;100.00;63146.28;5073676;28;20698;-54
2023/12/09 00:40:07;;;;;;;18.60;10.97;;;;;;;2.14;100.00;63139.47;5074220;28;20266;-53
2023/12/09 00:42:33;;;;;;;20.30;11.13;;;;;;;2.03;100.00;63128.06;5073893;28;20212;-54
2023/12/09 00:44:58;;;;;;;23.23;11.23;;;;;;;2.09;100.00;63136.53;5073339;28;20181;-55
2023/12/09 00:47:24;;;;;;;20.57;12.00;;;;;;;2.14;100.00;63141.97;5073581;28;20217;-58
2023/12/09 00:49:49;;;;;;;18.97;11.00;;;;;;;2.09;100.00;63129.63;5073289;28;20270;-55
2023/12/09 00:52:15;;;;;;;23.10;11.13;;;;;;;2.08;100.00;63135.44;5073373;28;20223;-56
2023/12/09 00:54:41;;;;;;;18.93;11.23;;;;;;;1.93;100.00;63116.69;5073514;28;20257;-54
2023/12/09 00:57:06;;;;;;;19.17;11.17;;;;;;;2.01;100.00;63125.38;5073544;28;20224;-55
2023/12/09 00:59:32;;;;;;;17.10;10.07;;;;;;;2.07;100.00;63132.41;5073161;28;20261;-53
2023/12/09 01:01:58;;;;;;;20.73;11.27;;;;;;;2.08;100.00;63133.50;5072550;28;20291;-54
2023/12/09 01:04:23;;;;;;;22.00;11.50;;;;;;;1.87;100.00;63112.66;5073192;28;20627;-54
2023/12/09 01:06:49;;;;;;;19.27;11.03;;;;;;;1.94;100.00;63115.28;5073152;28;20676;-56
2023/12/09 01:09:14;;;;;;;19.20;11.67;;;;;;;1.75;100.00;63094.69;5073093;28;20640;-53
2023/12/09 01:11:40;;;;;;;20.03;11.93;;;;;;;1.85;100.00;63111.03;5073336;28;20757;-53
2023/12/09 01:14:06;;;;;;;19.47;11.43;;;;;;;1.83;100.00;63105.84;5072910;28;20283;-55
2023/12/09 01:16:31;;;;;;;20.60;11.37;;;;;;;1.79;100.00;63104.53;5073049;28;20250;-54
2023/12/09 01:18:57;;;;;;;20.57;11.87;;;;;;;1.94;100.00;63117.78;5073061;28;20207;-54
2023/12/09 01:21:22;;;;;;;23.80;10.67;;;;;;;1.95;100.00;63118.84;5072966;28;20198;-52
2023/12/09 01:23:48;;;;;;;18.47;10.80;;;;;;;2.00;100.00;63124.81;5073128;28;20271;-54
2023/12/09 01:26:13;;;;;;;19.67;11.60;;;;;;;1.97;100.00;63121.03;5072878;28;20223;-56
2023/12/09 01:28:39;;;;;;;22.80;12.57;;;;;;;2.15;100.00;63143.03;5054861;28;20216;-56
2023/12/09 01:31:05;;;;;;;21.07;11.43;;;;;;;2.16;100.00;63141.66;5054807;28;20196;-56
2023/12/09 01:33:31;;;;;;;19.47;11.23;;;;;;;2.18;100.00;63143.81;5072660;28;20279;-55
2023/12/09 01:35:56;;;;;;;21.90;11.97;;;;;;;2.33;100.00;63162.56;5073023;28;20200;-54
2023/12/09 01:38:22;;;;;;;21.00;11.13;;;;;;;2.31;100.00;63157.91;5072505;28;20217;-52
2023/12/09 01:40:54;;;;;;;20.97;11.67;;;;;;;2.30;100.00;63156.84;5072488;28;20743;-52
2023/12/09 01:43:20;;;;;;;17.83;10.90;;;;;;;2.13;100.00;63140.88;5073014;28;20291;-54
2023/12/09 01:45:46;;;;;;;18.13;11.57;;;;;;;1.97;100.00;63121.56;5072417;28;20300;-56
2023/12/09 01:48:12;;;;;;;21.03;11.83;;;;;;;2.08;100.00;63133.50;5072824;28;20208;-57
2023/12/09 01:50:38;;;;;;;18.00;11.13;;;;;;;1.94;100.00;63120.25;5072391;28;20206;-55
2023/12/09 01:53:06;;;;;;;19.50;10.87;;;;;;;1.75;100.00;63097.16;5072478;28;20268;-54
2023/12/09 01:55:32;;;;;;;18.17;10.63;;;;;;;1.81;100.00;63103.66;5054830;28;20280;-53
2023/12/09 01:57:59;;;;;;;18.53;11.07;;;;;;;1.87;100.00;63112.66;5072367;28;20231;-53
2023/12/09 02:00:24;;;;;;;20.43;12.20;;;;;;;1.86;100.00;63111.59;5072231;28;20252;-54
2023/12/09 02:02:50;;;;;;;19.73;10.90;;;;;;;1.79;100.00;63101.50;5072472;28;20698;-53
2023/12/09 02:05:16;;;;;;;19.63;12.13;;;;;;;1.90;100.00;63113.44;5072182;28;20204;-53
2023/12/09 02:07:41;;;;;;;19.00;10.90;;;;;;;1.86;100.00;63109.09;5072274;28;20221;-54
2023/12/09 02:10:07;;;;;;;15.87;10.13;;;;;;;1.84;100.00;63104.44;5054159;28;20196;-53
2023/12/09 02:12:57;;;;;;;21.67;12.50;;;;;;;1.88;100.00;63111.81;5054259;28;20204;-55
2023/12/09 02:15:37;;;;;;;20.27;10.93;;;;;;;1.82;100.00;63107.78;5072325;28;20205;-54
2023/12/09 02:18:05;;;;;;;17.37;10.70;;;;;;;1.96;100.00;63119.94;5072024;28;20668;-56
2023/12/09 02:20:31;;;;;;;16.80;10.33;;;;;;;1.90;100.00;63113.97;5072345;28;20197;-55
2023/12/09 02:23:04;;;;;;;19.80;11.40;;;;;;;1.79;100.00;63103.97;5071645;28;20212;-55
2023/12/09 02:25:30;;;;;;;17.70;11.60;;;;;;;1.83;100.00;63103.91;5053783;28;20216;-54
2023/12/09 02:27:59;;;;;;;17.87;10.93;;;;;;;1.77;100.00;63099.34;5071917;28;20205;-55
2023/12/09 02:30:33;;;;;;;19.70;11.30;;;;;;;1.91;100.00;63112.03;5072453;28;20205;-54
2023/12/09 02:33:01;;;;;;;16.10;9.43;;;;;;;1.92;100.00;63115.59;5072191;28;20260;-53
2023/12/09 02:35:29;;;;;;;18.80;11.27;;;;;;;1.98;100.00;63122.13;5053804;28;20209;-54
2023/12/09 02:37:56;;;;;;;17.07;10.27;;;;;;;2.04;100.00;63128.63;5071749;28;20213;-54
2023/12/09 02:40:24;;;;;;;15.70;10.00;;;;;;;2.14;100.00;63142.47;5071571;28;20298;-53
2023/12/09 02:42:50;;;;;;;18.77;10.27;;;;;;;2.23;100.00;63151.72;5071760;28;20216;-53
2023/12/09 02:45:21;;;;;;;18.83;9.80;;;;;;;2.28;100.00;63149.69;5053945;28;20213;-53
2023/12/09 02:47:47;;;;;;;19.93;10.33;;;;;;;2.36;100.00;63165.81;5071639;28;20213;-53
2023/12/09 02:50:13;;;;;;;13.20;8.63;;;;;;;2.25;100.00;63151.41;5071970;28;20194;-53
2023/12/09 02:52:40;;;;;;;16.27;9.20;;;;;;;2.31;100.00;63157.91;5071467;28;20261;-53
2023/12/09 02:55:06;;;;;;;16.27;9.77;;;;;;;2.29;100.00;63155.75;5071322;28;20679;-53
2023/12/09 02:57:32;;;;;;;16.20;9.50;;;;;;;2.15;100.00;63143.03;5071511;28;20233;-55
2023/12/09 02:59:58;;;;;;;16.93;9.83;;;;;;;2.09;100.00;63134.03;5053374;28;20275;-54
2023/12/09 03:02:23;;;;;;;14.40;9.17;;;;;;;2.05;100.00;63132.72;5053400;28;20213;-54
2023/12/09 03:04:49;;;;;;;18.17;10.23;;;;;;;2.15;100.00;63143.56;5071391;28;20658;-53
2023/12/09 03:07:15;;;;;;;15.00;8.80;;;;;;;2.26;100.00;63152.50;5053093;28;20720;-55
2023/12/09 03:09:40;;;;;;;16.57;9.10;;;;;;;2.32;100.00;63156.53;5071100;28;20233;-55
2023/12/09 03:12:06;;;;;;;13.60;8.10;;;;;;;2.37;100.00;63167.44;5071543;28;20210;-54
2023/12/09 03:14:31;;;;;;;15.23;9.00;;;;;;;2.30;100.00;63157.34;5071611;28;20232;-52
2023/12/09 03:16:57;;;;;;;14.40;9.53;;;;;;;2.26;100.00;63150.53;5070966;28;20220;-53
2023/12/09 03:19:22;;;;;;;14.37;9.43;;;;;;;2.28;100.00;63157.66;5071038;28;20645;-57
2023/12/09 03:21:48;;;;;;;15.97;9.03;;;;;;;2.12;100.00;63134.81;5071008;28;20212;-53
2023/12/09 03:24:13;;;;;;;14.53;9.13;;;;;;;2.03;100.00;63128.06;5069764;28;20200;-54
2023/12/09 03:26:39;;;;;;;16.97;9.50;;;;;;;2.05;100.00;63132.19;5070330;28;20228;-53
2023/12/09 03:29:05;;;;;;;17.90;9.27;;;;;;;1.77;100.00;63102.38;5070840;28;20201;-53
2023/12/09 03:31:30;;;;;;;17.93;10.73;;;;;;;1.74;100.00;63098.56;5070567;28;20211;-53
2023/12/09 03:33:56;;;;;;;15.97;9.27;;;;;;;1.80;100.00;63103.13;5053068;28;20673;-53
2023/12/09 03:36:28;;;;;;;16.23;9.83;;;;;;;1.98;100.00;63122.13;5070741;28;20631;-54
2023/12/09 03:38:54;;;;;;;15.10;10.23;;;;;;;1.97;100.00;63121.03;5070548;28;20233;-54
2023/12/09 03:41:19;;;;;;;16.10;9.23;;;;;;;1.80;100.00;63100.63;5070564;28;20228;-53
2023/12/09 03:43:45;;;;;;;14.87;8.53;;;;;;;1.84;100.00;63106.94;5052840;28;20278;-54
2023/12/09 03:46:13;;;;;;;13.83;8.63;;;;;;;1.75;100.00;63100.19;5070658;28;20224;-53
2023/12/09 03:48:38;;;;;;;14.33;8.17;;;;;;;1.75;100.00;63100.19;5070674;28;20209;-52
2023/12/09 03:51:04;;;;;;;12.97;8.00;;;;;;;1.67;100.00;63086.56;5070495;28;20211;-52
2023/12/09 03:53:30;;;;;;;14.40;8.40;;;;;;;1.53;100.00;63076.88;5052360;28;20209;-52
2023/12/09 03:55:55;;;;;;;13.70;8.90;;;;;;;1.60;100.00;63083.91;5071073;28;20246;-51
2023/12/09 03:58:22;;;;;;;15.13;8.37;;;;;;;1.56;100.00;63077.66;5070721;28;20243;-52
2023/12/09 04:00:49;;;;;;;13.80;8.67;;;;;;;1.65;100.00;63089.91;5070314;28;20189;-52
2023/12/09 04:03:14;;;;;;;12.40;8.20;;;;;;;1.69;100.00;63089.28;5070915;28;20244;-52
2023/12/09 04:05:41;;;;;;;14.43;8.90;;;;;;;1.82;100.00;63104.75;5070374;28;20760;-53
2023/12/09 04:08:07;;;;;;;13.83;8.17;;;;;;;1.77;100.00;63097.41;5070612;28;20220;-52
2023/12/09 04:10:33;;;;;;;11.87;7.20;;;;;;;1.92;100.00;63115.59;5070301;28;20207;-53
2023/12/09 04:12:59;;;;;;;12.03;7.37;;;;;;;1.91;100.00;63112.03;5070309;28;20212;-57
2023/12/09 04:15:24;;;;;;;13.73;7.87;;;;;;;1.88;100.00;63111.28;5052731;28;20240;-52
2023/12/09 04:17:50;;;;;;;13.90;8.43;;;;;;;2.05;100.00;63132.19;5070256;28;20615;-53
2023/12/09 04:20:16;;;;;;;12.83;8.13;;;;;;;2.11;100.00;63136.22;5070124;28;20251;-53
2023/12/09 04:22:42;;;;;;;13.03;7.53;;;;;;;2.07;100.00;63134.34;5052522;28;20275;-52
2023/12/09 04:25:08;;;;;;;14.83;8.40;;;;;;;2.08;100.00;63133.50;5070487;28;20691;-53
2023/12/09 04:27:34;;;;;;;14.37;9.53;;;;;;;1.95;100.00;63118.84;5069926;28;20712;-53
2023/12/09 04:30:00;;;;;;;12.10;7.37;;;;;;;1.98;100.00;63122.13;5068727;28;20693;-53
2023/12/09 04:32:29;;;;;;;13.20;8.73;;;;;;;1.94;100.00;63120.78;5070251;28;20619;-53
2023/12/09 04:34:55;;;;;;;15.57;9.17;;;;;;;1.89;100.00;63112.34;5070115;28;20651;-53
2023/12/09 04:37:22;;;;;;;11.77;7.97;;;;;;;1.83;100.00;63105.84;5071138;28;20213;-55
2023/12/09 04:39:48;;;;;;;11.67;7.20;;;;;;;1.91;100.00;63115.06;5073579;28;20217;-53
2023/12/09 04:42:14;;;;;;;13.87;8.00;;;;;;;1.82;100.00;63104.75;5073708;28;20238;-60
2023/12/09 04:44:39;;;;;;;12.77;7.50;;;;;;;1.59;100.00;63080.38;5073924;28;20640;-53
2023/12/09 04:47:06;;;;;;;11.47;7.43;;;;;;;1.48;100.00;63068.97;5073234;28;20282;-53
2023/12/09 04:49:32;;;;;;;9.97;6.57;;;;;;;1.21;100.00;63042.19;5073313;28;20211;-53
2023/12/09 04:51:58;;;;;;;10.47;7.43;;;;;;;1.16;100.00;63036.78;5073291;28;20220;-52
2023/12/09 04:54:23;;;;;;;14.43;7.87;;;;;;;1.14;100.00;63032.13;5073799;28;20668;-53
2023/12/09 04:56:49;;;;;;;11.40;7.60;;;;;;;1.23;100.00;63041.88;5073399;28;20204;-54
2023/12/09 04:59:14;;;;;;;12.30;7.50;;;;;;;1.00;100.00;63019.44;5073004;28;20670;-52
2023/12/09 05:01:41;;;;;;;14.87;8.13;;;;;;;1.22;100.00;63040.78;5073198;28;20197;-53
2023/12/09 05:04:06;;;;;;;12.87;7.93;;;;;;;1.45;100.00;63068.22;5073212;28;20193;-53
2023/12/09 05:06:32;;;;;;;11.10;7.07;;;;;;;1.53;100.00;63076.88;5054806;28;20220;-53
2023/12/09 05:08:57;;;;;;;12.70;8.00;;;;;;;1.40;100.00;63057.81;5073144;28;20287;-53
2023/12/09 05:11:23;;;;;;;13.73;7.93;;;;;;;1.29;100.00;63050.88;5073277;28;20196;-53
2023/12/09 05:13:48;;;;;;;11.23;7.80;;;;;;;1.43;100.00;63067.97;5073523;28;20205;-53
2023/12/09 05:16:14;;;;;;;10.27;7.27;;;;;;;1.43;100.00;63065.50;5072889;28;20586;-54
2023/12/09 05:18:40;;;;;;;12.63;7.23;;;;;;;1.54;100.00;63073.00;5080561;22;20307;-54
2023/12/09 05:21:06;;;;;;;13.40;7.43;;;;;;;1.45;100.00;63070.69;5072754;28;20635;-56
2023/12/09 05:23:32;;;;;;;11.00;6.93;;;;;;;1.33;100.00;63052.19;5054486;28;20296;-52
2023/12/09 05:25:58;;;;;;;12.47;7.87;;;;;;;1.49;100.00;63070.06;5052613;28;20259;-53
2023/12/09 05:28:24;;;;;;;11.87;7.43;;;;;;;1.41;100.00;63060.84;5053087;28;20241;-53
2023/12/09 05:30:49;;;;;;;9.87;7.40;;;;;;;1.54;100.00;63075.47;5034728;28;20188;-53
2023/12/09 05:33:15;;;;;;;14.10;7.57;;;;;;;1.49;100.00;63072.00;5052855;28;20275;-53
2023/12/09 05:35:40;;;;;;;15.50;7.70;;;;;;;1.68;100.00;63092.59;5052945;28;20205;-53
2023/12/09 05:38:12;;;;;;;12.03;7.33;;;;;;;1.79;100.00;63102.03;5052774;28;20213;-53
2023/12/09 05:40:38;;;;;;;10.40;7.13;;;;;;;1.75;100.00;63097.16;5052635;28;20289;-54
2023/12/09 05:43:03;;;;;;;12.03;7.07;;;;;;;1.92;100.00;63115.59;5052417;28;20708;-53
2023/12/09 05:45:29;;;;;;;15.57;7.40;;;;;;;1.78;100.00;63100.44;5052413;28;20691;-54
2023/12/09 05:47:56;;;;;;;14.50;8.10;;;;;;;1.91;100.00;63115.06;5052369;28;20211;-53
2023/12/09 05:50:21;;;;;;;13.33;8.33;;;;;;;2.00;100.00;63121.81;5052980;28;20195;-54
2023/12/09 05:52:47;;;;;;;16.60;9.03;;;;;;;1.88;100.00;63111.81;5052905;28;20655;-54
2023/12/09 05:55:16;;;;;;;14.00;8.27;;;;;;;1.55;100.00;63079.06;5052376;28;20202;-53
2023/12/09 05:57:41;;;;;;;16.43;10.03;;;;;;;1.35;100.00;63057.38;5052127;28;20300;-52
2023/12/09 06:00:09;;;;;;;16.30;9.40;;;;;;;1.56;100.00;63080.13;5052302;28;20230;-55
2023/12/09 06:02:35;;;;;;;15.27;9.83;;;;;;;1.74;100.00;63093.59;5052478;28;20209;-54
2023/12/09 06:05:01;;;;;;;14.83;8.63;;;;;;;1.90;100.00;63113.44;5052166;28;20259;-55
2023/12/09 06:07:26;;;;;;;14.30;8.80;;;;;;;2.10;100.00;63137.63;5052218;28;20727;-54
2023/12/09 06:09:52;;;;;;;15.07;8.93;;;;;;;2.15;100.00;63141.09;5034431;28;20642;-54
2023/12/09 06:12:18;;;;;;;13.40;7.00;;;;;;;2.37;100.00;63166.91;5052117;28;20217;-55
2023/12/09 06:14:43;;;;;;;13.03;7.80;;;;;;;2.18;100.00;63146.81;5052076;28;20201;-56
2023/12/09 06:17:08;;;;;;;12.93;8.50;;;;;;;2.18;100.00;63143.81;5052108;28;20293;-54
2023/12/09 06:19:34;;;;;;;10.13;6.67;;;;;;;2.13;100.00;63138.38;5051988;28;20259;-55
2023/12/09 06:22:00;;;;;;;12.90;8.00;;;;;;;2.04;100.00;63128.63;5034228;28;20605;-56
2023/12/09 06:24:26;;;;;;;14.93;7.77;;;;;;;2.09;100.00;63134.03;5051975;28;20198;-53
2023/12/09 06:26:51;;;;;;;13.90;7.73;;;;;;;2.06;100.00;63133.81;5051546;28;20326;-53
2023/12/09 06:29:17;;;;;;;14.23;8.03;;;;;;;2.13;100.00;63138.38;5034203;28;20187;-52
2023/12/09 06:31:43;;;;;;;12.13;8.10;;;;;;;2.17;100.00;63145.19;5051860;28;20312;-53
2023/12/09 06:34:08;;;;;;;11.30;6.93;;;;;;;2.24;100.00;63150.84;5051584;28;20729;-53
2023/12/09 06:36:34;;;;;;;14.90;8.43;;;;;;;1.89;100.00;63112.34;5051756;28;20206;-53
2023/12/09 06:38:59;;;;;;;14.73;7.97;;;;;;;1.90;100.00;63115.94;5051597;28;20589;-54
2023/12/09 06:41:24;;;;;;;20.07;11.93;;;;;;;2.05;100.00;63130.25;5051476;28;20210;-55
2023/12/09 06:43:50;;;;;;;15.80;9.90;;;;;;;1.98;100.00;63122.13;5051769;28;20675;-54
2023/12/09 06:46:18;;;;;;;16.73;8.23;;;;;;;2.10;100.00;63135.66;5051789;28;20220;-54
2023/12/09 06:48:45;;;;;;;10.67;6.47;;;;;;;2.05;100.00;63132.19;5052101;28;20294;-54
2023/12/09 06:51:14;;;;;;;12.67;8.73;;;;;;;1.95;100.00;63121.34;5051499;28;20282;-52
2023/12/09 06:53:40;;;;;;;15.73;9.27;;;;;;;2.08;100.00;63135.44;5051308;28;20237;-54
2023/12/09 06:56:06;;;;;;;18.03;9.30;;;;;;;2.02;100.00;63126.47;5051285;28;20731;-54
2023/12/09 06:58:32;;;;;;;18.57;9.40;;;;;;;1.98;100.00;63122.66;5033891;28;20314;-53
2023/12/09 07:00:58;;;;;;;17.80;9.67;;;;;;;1.96;100.00;63118.00;5050488;28;20686;-54
2023/12/09 07:03:23;;;;;;;15.73;8.97;;;;;;;1.97;100.00;63121.03;5051452;28;20583;-54
2023/12/09 07:05:49;;;;;;;12.87;8.13;;;;;;;2.04;100.00;63129.16;5051382;28;20214;-52
2023/12/09 07:08:14;;;;;;;13.80;7.93;;;;;;;2.26;100.00;63152.50;5051297;28;20209;-53
2023/12/09 07:10:44;;;;;;;13.07;8.57;;;;;;;2.24;100.00;63150.31;5051208;28;20229;-54
2023/12/09 07:13:10;;;;;;;12.30;7.60;;;;;;;2.16;100.00;63142.16;5051039;28;20279;-52
2023/12/09 07:15:35;;;;;;;15.10;8.17;;;;;;;2.08;100.00;63132.97;5051026;28;20671;-53
2023/12/09 07:18:01;;;;;;;12.50;7.50;;;;;;;1.97;100.00;63123.50;5051296;28;20679;-54
2023/12/09 07:20:26;;;;;;;12.07;6.87;;;;;;;2.19;100.00;63144.88;5051054;28;20581;-54
2023/12/09 07:22:52;;;;;;;11.43;6.10;;;;;;;2.26;100.00;63152.50;5033220;28;20217;-53
2023/12/09 07:25:17;;;;;;;7.73;5.40;;;;;;;2.49;100.00;63179.94;5050830;28;20205;-54
2023/12/09 07:27:43;;;;;;;9.80;6.27;;;;;;;2.46;100.00;63177.22;5033293;28;20210;-53
2023/12/09 07:30:09;;;;;;;9.67;6.80;;;;;;;2.23;100.00;63149.78;5050712;28;20592;-53
2023/12/09 07:32:34;;;;;;;9.70;5.90;;;;;;;2.18;100.00;63146.28;5050764;28;20232;-53
2023/12/09 07:35:00;;;;;;;8.53;5.67;;;;;;;2.25;100.00;63153.88;5032957;28;20213;-52
2023/12/09 07:37:26;;;;;;;7.93;5.23;;;;;;;2.43;100.00;63173.97;5050670;28;20217;-55
2023/12/09 07:39:52;;;;;;;8.33;5.63;;;;;;;2.68;100.00;63195.03;5050856;28;20205;-54
2023/12/09 07:42:17;;;;;;;9.27;5.50;;;;;;;2.50;100.00;63179.06;5051023;28;20213;-53
2023/12/09 07:44:43;;;;;;;9.73;6.13;;;;;;;2.64;100.00;63196.22;5050583;28;20201;-54
2023/12/09 07:47:08;;;;;;;17.30;9.87;;;;;;;2.91;100.00;63220.00;5051043;28;20227;-54
2023/12/09 07:49:34;;;;;;;16.13;9.50;;;;;;;3.09;100.00;63242.56;5032736;28;20269;-55
2023/12/09 07:51:59;;;;;;;20.03;10.27;;;;;;;3.21;100.00;63258.09;5050575;28;20214;-58
2023/12/09 07:54:25;;;;;;;20.40;11.03;;;;;;;3.33;100.00;63271.13;5050957;28;20664;-52
2023/12/09 07:56:50;;;;;;;17.93;11.57;;;;;;;3.71;100.00;63311.34;5050393;28;20238;-53
2023/12/09 07:59:16;;;;;;;19.70;11.03;;;;;;;3.71;100.00;63311.91;5050536;28;20587;-53
2023/12/09 08:01:41;;;;;;;17.53;10.30;;;;;;;3.72;100.00;63310.47;5050479;28;20264;-53
2023/12/09 08:04:07;;;;;;;22.43;11.70;;;;;;;3.80;100.00;63321.66;5050807;28;20197;-54
2023/12/09 08:06:33;;;;;;;17.97;10.50;;;;;;;3.86;100.00;63325.69;5050072;28;20654;-52
2023/12/09 08:08:59;;;;;;;23.20;12.77;;;;;;;3.98;100.00;63335.72;5048991;28;20211;-54
2023/12/09 08:11:24;;;;;;;17.43;9.30;;;;;;;3.89;100.00;63328.41;5051772;28;20207;-53
2023/12/09 08:13:50;;;;;;;12.63;8.07;;;;;;;3.85;100.00;63324.06;5054141;28;20290;-53
2023/12/09 08:16:15;;;;;;;13.70;8.93;;;;;;;3.82;100.00;63318.84;5054397;28;20571;-53
2023/12/09 08:18:42;;;;;;;14.53;8.10;;;;;;;3.81;100.00;63320.28;5036040;28;20250;-54
2023/12/09 08:21:09;;;;;;;14.27;7.87;;;;;;;3.81;100.00;63322.22;5053784;28;20640;-54
2023/12/09 08:23:35;;;;;;;15.50;9.30;;;;;;;3.56;100.00;63292.53;5053613;28;20261;-58
2023/12/09 08:26:01;;;;;;;12.70;8.03;;;;;;;3.61;100.00;63298.00;5035783;28;20621;-52
2023/12/09 08:28:27;;;;;;;14.03;8.37;;;;;;;3.65;100.00;63302.34;5053974;28;20213;-53
2023/12/09 08:30:53;;;;;;;13.90;8.33;;;;;;;3.63;100.00;63302.66;5053656;28;20177;-53
2023/12/09 08:33:19;;;;;;;15.23;8.50;;;;;;;3.32;100.00;63267.03;5053715;28;20300;-54
2023/12/09 08:35:44;;;;;;;12.70;8.37;;;;;;;3.68;100.00;63305.59;5053516;28;20337;-54
2023/12/09 08:38:10;;;;;;;12.50;7.87;;;;;;;3.74;100.00;63314.59;5053756;28;20236;-53
2023/12/09 08:40:35;;;;;;;13.37;7.27;;;;;;;3.60;100.00;63299.94;5035796;28;20592;-52
2023/12/09 08:43:01;;;;;;;11.67;6.80;;;;;;;3.29;100.00;63264.31;5053383;28;20295;-53
2023/12/09 08:45:26;;;;;;;9.93;6.37;;;;;;;3.22;100.00;63256.16;5053428;28;20216;-53
2023/12/09 08:47:52;;;;;;;10.17;5.87;;;;;;;3.18;100.00;63252.38;5053280;28;20266;-53
2023/12/09 08:50:18;;;;;;;10.90;6.73;;;;;;;3.56;100.00;63293.09;5052114;28;20566;-53
2023/12/09 08:52:43;;;;;;;14.00;6.87;;;;;;;3.61;100.00;63298.00;5035639;28;20235;-53
2023/12/09 08:55:10;;;;;;;10.60;6.27;;;;;;;3.53;100.00;63291.78;5051921;28;20197;-51
2023/12/09 08:57:36;;;;;;;12.13;6.30;;;;;;;3.40;100.00;63275.72;5053790;28;20227;-53
2023/12/09 09:00:07;;;;;;;10.90;6.73;;;;;;;3.37;100.00;63273.00;5053367;28;20181;-53
2023/12/09 09:02:32;;;;;;;13.27;7.10;;;;;;;3.24;100.00;63258.88;5035549;28;20300;-53
2023/12/09 09:04:58;;;;;;;9.97;6.47;;;;;;;3.42;100.00;63277.88;5053283;28;20744;-53
2023/12/09 09:07:23;;;;;;;9.03;6.30;;;;;;;3.79;100.00;63320.59;5035158;28;20291;-54
2023/12/09 09:09:49;;;;;;;10.23;5.93;;;;;;;3.69;100.00;63309.16;5053415;28;20243;-55
2023/12/09 09:12:14;;;;;;;10.67;6.17;;;;;;;4.04;100.00;63345.25;5053108;28;20706;-54
2023/12/09 09:14:40;;;;;;;12.20;6.73;;;;;;;3.87;98.95;63329.28;5052915;28;20204;-53
2023/12/09 09:17:05;;;;;;;11.93;6.10;;;;;;;4.08;97.47;63349.59;5035210;28;20221;-54
2023/12/09 09:19:31;;;;;;;7.77;5.50;;;;;;;4.11;98.30;63357.31;5052978;28;20592;-53
2023/12/09 09:21:57;;;;;;;10.33;6.40;;;;;;;3.86;100.00;63327.63;5052931;28;20656;-52
2023/12/09 09:24:23;;;;;;;9.20;5.87;;;;;;;3.80;100.00;63316.69;5052042;28;20671;-52
2023/12/09 09:26:49;;;;;;;10.93;7.20;;;;;;;3.59;100.00;63295.81;5053099;28;20220;-53
2023/12/09 09:29:15;;;;;;;11.47;7.30;;;;;;;3.63;100.00;63295.19;5052758;28;20263;-54
2023/12/09 09:31:41;;;;;;;14.93;9.07;;;;;;;3.92;100.00;63332.22;5035035;28;20274;-56
2023/12/09 09:34:07;;;;;;;18.50;10.20;;;;;;;4.12;100.00;63353.97;5052794;28;20207;-54
2023/12/09 09:36:32;;;;;;;17.97;10.53;;;;;;;4.20;100.00;63360.16;5051087;28;20235;-54
2023/12/09 09:38:58;;;;;;;12.70;9.47;;;;;;;4.45;100.00;63389.31;5052805;28;20198;-55
2023/12/09 09:41:44;;;;;;;18.03;11.03;;;;;;;4.36;100.00;63376.47;5052357;28;20201;-53
2023/12/09 09:44:17;;;;;;;15.63;9.87;;;;;;;4.51;100.00;63395.28;5052876;28;20206;-55
2023/12/09 09:46:43;;;;;;;13.63;8.13;;;;;;;4.31;99.99;63374.06;5062510;22;20221;-54
2023/12/09 09:49:10;;;;;;;12.83;6.80;;;;;;;4.12;100.00;63353.44;5072290;28;20637;-53
2023/12/09 09:51:42;;;;;;;8.93;6.17;;;;;;;4.12;96.78;63353.97;5051642;28;20278;-53
2023/12/09 09:54:29;;;;;;;8.50;5.27;;;;;;;3.99;96.90;63342.31;5052405;28;20731;-52
2023/12/09 09:56:58;;;;;;;10.50;4.70;;;;;;;4.08;95.17;63349.59;5052163;28;20221;-58
2023/12/09 09:59:24;;;;;;;6.73;4.67;;;;;;;3.87;97.04;63328.72;5052205;28;20205;-54
2023/12/09 10:01:50;;;;;;;7.23;4.90;;;;;;;3.70;98.13;63305.81;5052577;28;20215;-54
2023/12/09 10:04:17;;;;;;;8.87;5.30;;;;;;;3.79;98.14;63320.59;5034347;28;20205;-54
2023/12/09 10:06:43;;;;;;;7.57;5.50;;;;;;;3.52;99.27;63291.25;5052481;28;20223;-53
2023/12/09 10:09:09;;;;;;;7.87;5.30;;;;;;;3.57;99.61;63293.63;5052157;28;20207;-53
2023/12/09 10:11:35;;;;;;;7.17;4.70;;;;;;;3.28;100.00;63265.72;5052074;28;20587;-54
2023/12/09 10:14:00;;;;;;;8.20;5.43;;;;;;;3.64;100.00;63301.25;5052352;28;20537;-53
2023/12/09 10:16:26;;;;;;;6.80;4.57;;;;;;;3.97;99.48;63339.59;5052174;28;20240;-54
2023/12/09 10:18:52;;;;;;;7.80;3.83;;;;;;;4.13;98.70;63352.56;5052388;28;20201;-60
2023/12/09 10:21:17;;;;;;;6.83;4.80;;;;;;;3.94;96.54;63336.34;5034047;28;20224;-54
2023/12/09 10:23:45;;;;;;;7.40;4.37;;;;;;;4.13;99.41;63354.50;5052149;28;20198;-54
2023/12/09 10:26:12;;;;;;;8.27;5.40;;;;;;;4.30;96.76;63373.00;5050647;28;20712;-60
2023/12/09 10:28:38;;;;;;;5.87;4.43;;;;;;;4.48;91.52;63392.56;5051784;28;20307;-55
2023/12/09 10:31:04;;;;;;;7.63;4.63;;;;;;;4.46;91.15;63389.84;5051867;28;20574;-53
2023/12/09 10:33:31;;;;;;;7.70;5.10;;;;;;;4.27;94.76;63367.22;5033861;28;20218;-54
2023/12/09 10:35:57;;;;;;;5.80;4.00;;;;;;;4.19;96.13;63361.56;5050636;28;20204;-55
2023/12/09 10:38:23;;;;;;;7.77;5.07;;;;;;;4.48;97.43;63395.06;5034139;28;20530;-58
2023/12/09 10:40:53;;;;;;;6.43;4.23;;;;;;;4.75;92.97;63421.38;5052297;28;20267;-56
2023/12/09 10:43:20;;;;;;;5.27;3.67;;;;;;;4.81;93.45;63427.91;5051770;28;20292;-54
2023/12/09 10:45:45;;;;;;;7.17;4.70;;;;;;;4.48;90.90;63392.56;5051458;28;20223;-55
2023/12/09 10:48:11;;;;;;;6.63;5.03;;;;;;;4.33;94.45;63378.19;5051558;28;20225;-54
2023/12/09 10:50:40;;;;;;;7.60;4.63;;;;;;;4.78;94.17;63422.16;5051539;28;20610;-55
2023/12/09 10:53:06;;;;;;;14.43;6.40;;;;;;;4.73;95.71;63422.25;5051248;28;20213;-55
2023/12/09 10:55:32;;;;;;;9.17;4.90;;;;;;;4.87;91.83;63434.44;5051369;28;20200;-57
2023/12/09 10:57:59;;;;;;;10.03;5.23;;;;;;;4.94;96.96;63440.13;5051168;28;20238;-57
2023/12/09 11:00:32;;;;;;;7.37;4.20;;;;;;;4.76;94.96;63422.47;5051221;28;20247;-56
2023/12/09 11:02:59;;;;;;;5.60;4.10;;;;;;;4.77;94.47;63426.59;5051891;28;20240;-55
2023/12/09 11:05:25;;;;;;;6.77;3.90;;;;;;;4.68;95.12;63414.31;5051250;28;20246;-55
2023/12/09 11:07:53;;;;;;;7.93;4.33;;;;;;;4.49;96.88;63393.09;5051233;28;20300;-57
2023/12/09 11:10:20;;;;;;;6.23;4.17;;;;;;;4.58;97.06;63403.44;5051285;28;20303;-55
2023/12/09 11:12:49;;;;;;;7.57;4.00;;;;;;;4.48;94.74;63392.56;5051538;28;20254;-56
2023/12/09 11:15:14;;;;;;;3.57;3.10;;;;;;;4.65;93.65;63413.56;5051400;28;20220;-54
2023/12/09 11:17:49;;;;;;;13.13;4.93;;;;;;;4.84;92.02;63431.75;5051262;28;20208;-59
2023/12/09 11:20:18;;;;;;;5.87;2.40;;;;;;;5.00;89.04;63448.59;5050867;28;20696;-57